createdAt,value
2023-05-12T00:02:10.135Z,12.40
2023-05-12T00:04:47.644Z,12.40
2023-05-12T00:07:23.807Z,12.30
2023-05-12T00:10:05.262Z,12.30
2023-05-12T00:12:44.453Z,12.30
2023-05-12T00:15:23.295Z,12.30
2023-05-12T00:18:01.032Z,12.20
2023-05-12T00:20:38.359Z,12.20
2023-05-12T00:23:20.953Z,12.10
2023-05-12T00:26:02.910Z,12.10
2023-05-12T00:28:36.733Z,12.00
2023-05-12T00:31:21.632Z,12.10
2023-05-12T00:33:57.745Z,12.10
2023-05-12T00:36:36.834Z,12.00
2023-05-12T00:39:13.798Z,12.00
2023-05-12T00:41:50.877Z,12.00
2023-05-12T00:44:29.385Z,11.90
2023-05-12T00:47:09.977Z,11.80
2023-05-12T00:49:48.550Z,11.90
2023-05-12T00:52:24.088Z,11.90
2023-05-12T00:55:01.374Z,11.90
2023-05-12T00:57:42.643Z,11.80
2023-05-12T01:00:22.555Z,11.80
2023-05-12T01:03:02.608Z,11.70
2023-05-12T01:05:42.700Z,11.70
2023-05-12T01:08:21.677Z,11.70
2023-05-12T01:10:57.945Z,11.70
2023-05-12T01:13:33.142Z,11.60
2023-05-12T01:16:12.927Z,11.60
2023-05-12T01:18:53.880Z,11.60
2023-05-12T01:21:29.979Z,11.60
2023-05-12T01:24:11.750Z,11.50
2023-05-12T01:26:52.094Z,11.50
2023-05-12T01:29:25.945Z,11.40
2023-05-12T01:32:06.711Z,11.40
2023-05-12T01:34:44.553Z,11.40
2023-05-12T01:37:22.368Z,11.30
2023-05-12T01:39:58.315Z,11.30
2023-05-12T01:42:38.842Z,11.30
2023-05-12T01:45:15.363Z,11.20
2023-05-12T01:47:51.799Z,11.20
2023-05-12T01:50:26.287Z,11.20
2023-05-12T01:53:07.830Z,11.20
2023-05-12T01:55:47.576Z,11.10
2023-05-12T01:58:32.317Z,11.10
2023-05-12T02:01:08.625Z,11.10
2023-05-12T02:03:47.648Z,11.00
2023-05-12T02:06:31.716Z,11.00
2023-05-12T02:09:05.316Z,10.90
2023-05-12T02:11:41.175Z,10.90
2023-05-12T02:14:24.601Z,10.80
2023-05-12T02:17:00.395Z,10.80
2023-05-12T02:19:38.121Z,10.80
2023-05-12T02:22:15.947Z,10.70
2023-05-12T02:24:52.805Z,10.70
2023-05-12T02:27:28.734Z,10.70
2023-05-12T02:30:07.239Z,10.60
2023-05-12T02:32:45.280Z,10.60
2023-05-12T02:35:22.221Z,10.60
2023-05-12T02:38:01.595Z,10.50
2023-05-12T02:40:36.036Z,10.50
2023-05-12T02:43:12.025Z,10.50
2023-05-12T02:45:51.177Z,10.50
2023-05-12T02:48:30.318Z,10.40
2023-05-12T02:51:06.221Z,10.40
2023-05-12T02:53:42.920Z,10.40
2023-05-12T02:56:19.338Z,10.30
2023-05-12T02:58:56.022Z,10.30
2023-05-12T03:01:32.504Z,10.30
2023-05-12T03:04:11.633Z,10.20
2023-05-12T03:06:48.704Z,10.20
2023-05-12T03:09:27.653Z,10.20
2023-05-12T03:12:03.427Z,10.20
2023-05-12T03:14:39.591Z,10.10
2023-05-12T03:17:17.718Z,10.20
2023-05-12T03:19:58.228Z,10.10
2023-05-12T03:22:35.866Z,10.10
2023-05-12T03:25:09.665Z,10.10
2023-05-12T03:27:46.667Z,10.00
2023-05-12T03:30:23.648Z,10.00
2023-05-12T03:33:04.962Z,10.00
2023-05-12T03:35:40.134Z,9.90
2023-05-12T03:38:23.093Z,10.00
2023-05-12T03:41:08.898Z,10.00
2023-05-12T03:43:45.194Z,10.10
2023-05-12T03:46:20.270Z,10.10
2023-05-12T03:48:59.658Z,10.20
2023-05-12T03:51:34.522Z,10.20
2023-05-12T03:54:13.173Z,10.20
2023-05-12T03:56:54.763Z,10.20
2023-05-12T03:59:29.872Z,10.20
2023-05-12T04:02:08.081Z,10.20
2023-05-12T04:04:43.364Z,10.20
2023-05-12T04:07:18.385Z,10.20
2023-05-12T04:09:57.583Z,10.30
2023-05-12T04:12:33.234Z,10.40
2023-05-12T04:15:11.449Z,10.50
2023-05-12T04:17:47.472Z,10.60
2023-05-12T04:20:23.408Z,10.70
2023-05-12T04:23:00.762Z,10.60
2023-05-12T04:25:43.189Z,10.80
2023-05-12T04:28:27.529Z,10.90
2023-05-12T04:31:07.053Z,11.20
2023-05-12T04:33:46.486Z,11.30
2023-05-12T04:36:26.258Z,11.30
2023-05-12T04:39:05.665Z,11.30
2023-05-12T04:41:45.326Z,11.50
2023-05-12T04:44:22.644Z,11.80
2023-05-12T04:47:00.499Z,12.00
2023-05-12T04:49:36.609Z,12.20
2023-05-12T04:52:11.698Z,12.50
2023-05-12T04:54:56.532Z,12.80
2023-05-12T04:57:38.804Z,13.10
2023-05-12T05:00:17.670Z,13.40
2023-05-12T05:03:00.250Z,13.60
2023-05-12T05:05:36.500Z,13.90
2023-05-12T05:08:12.462Z,14.00
2023-05-12T05:10:48.469Z,14.30
2023-05-12T05:13:31.733Z,14.30
2023-05-12T05:16:12.410Z,14.40
2023-05-12T05:18:49.836Z,14.20
2023-05-12T05:21:26.913Z,14.20
2023-05-12T05:24:02.396Z,14.50
2023-05-12T05:26:40.056Z,14.70
2023-05-12T05:29:15.303Z,14.90
2023-05-12T05:31:56.834Z,15.20
2023-05-12T05:34:35.479Z,15.40
2023-05-12T05:37:13.386Z,15.60
2023-05-12T05:39:52.362Z,15.80
2023-05-12T05:42:30.358Z,16.00
2023-05-12T05:45:07.976Z,16.20
2023-05-12T05:47:53.087Z,16.40
2023-05-12T05:50:30.508Z,16.40
2023-05-12T05:53:09.122Z,16.70
2023-05-12T05:55:52.360Z,16.90
2023-05-12T05:58:30.655Z,17.10
2023-05-12T06:01:10.156Z,17.20
2023-05-12T06:03:49.530Z,17.30
2023-05-12T06:06:28.332Z,17.50
2023-05-12T06:09:05.746Z,17.60
2023-05-12T06:11:44.404Z,17.70
2023-05-12T06:14:22.577Z,17.80
2023-05-12T06:16:59.667Z,17.90
2023-05-12T06:19:41.242Z,17.90
2023-05-12T06:22:17.159Z,18.10
2023-05-12T06:24:54.747Z,18.20
2023-05-12T06:27:33.075Z,18.30
2023-05-12T06:30:15.861Z,18.30
2023-05-12T06:32:53.032Z,18.40
2023-05-12T06:35:32.051Z,18.60
2023-05-12T06:38:09.926Z,18.90
2023-05-12T06:40:46.413Z,19.00
2023-05-12T06:43:23.787Z,19.10
2023-05-12T06:46:07.858Z,19.10
2023-05-12T06:48:44.870Z,19.20
2023-05-12T06:51:23.790Z,19.30
2023-05-12T06:54:02.236Z,19.40
2023-05-12T06:56:40.400Z,19.40
2023-05-12T06:59:19.751Z,19.60
2023-05-12T07:02:05.766Z,19.70
2023-05-12T07:04:44.179Z,19.90
2023-05-12T07:07:25.050Z,20.00
2023-05-12T07:12:43.566Z,20.20
2023-05-12T07:15:22.073Z,20.50
2023-05-12T07:18:00.156Z,20.60
2023-05-12T07:21:08.179Z,20.60
2023-05-12T07:23:56.225Z,20.70
2023-05-12T07:26:42.742Z,20.90
2023-05-12T07:29:25.907Z,21.00
2023-05-12T07:32:03.672Z,21.20
2023-05-12T07:37:54.015Z,21.50
2023-05-12T07:43:42.629Z,21.70
2023-05-12T07:46:25.756Z,22.00
2023-05-12T07:49:01.992Z,22.00
2023-05-12T07:51:55.151Z,22.20
2023-05-12T08:44:06.786Z,24.50
2023-05-12T08:46:46.738Z,24.70
2023-05-12T08:49:26.473Z,24.90
2023-05-12T08:52:07.627Z,25.00
2023-05-12T08:54:55.035Z,24.80
2023-05-12T08:57:38.198Z,24.70
2023-05-12T09:00:27.091Z,24.50
2023-05-12T09:03:07.688Z,24.40
2023-05-12T09:05:47.888Z,24.60
2023-05-12T09:08:26.344Z,24.90
2023-05-12T09:11:03.901Z,25.00
2023-05-12T09:13:48.191Z,25.10
2023-05-12T09:16:28.965Z,25.20
2023-05-12T09:19:06.824Z,25.40
2023-05-12T09:21:47.927Z,25.20
2023-05-12T09:24:37.804Z,25.30
2023-05-12T09:27:14.046Z,25.40
2023-05-12T09:29:59.214Z,25.40
2023-05-12T09:32:35.993Z,25.40
2023-05-12T09:35:17.122Z,25.40
2023-05-12T09:37:55.521Z,25.40
2023-05-12T09:40:32.533Z,25.40
2023-05-12T09:43:14.353Z,25.20
2023-05-12T09:45:51.657Z,25.20
2023-05-12T09:48:31.890Z,25.10
2023-05-12T09:51:06.461Z,25.30
2023-05-12T09:53:48.953Z,25.40
2023-05-12T09:56:26.178Z,25.20
2023-05-12T09:59:07.039Z,25.20
2023-05-12T10:01:43.873Z,25.10
2023-05-12T10:04:28.738Z,25.10
2023-05-12T10:07:05.217Z,25.20
2023-05-12T10:09:51.188Z,25.10
2023-05-12T10:12:28.789Z,25.10
2023-05-12T11:25:01.195Z,24.50
2023-05-12T11:27:51.082Z,24.40
2023-05-12T11:49:35.792Z,24.00
2023-05-12T12:04:22.338Z,23.70
2023-05-12T12:13:18.104Z,23.60
2023-05-12T13:13:06.022Z,22.90
2023-05-12T13:19:04.450Z,22.60
2023-05-12T13:21:51.768Z,22.40
2023-05-12T13:24:30.354Z,22.40
2023-05-12T13:27:08.912Z,22.30
2023-05-12T13:29:47.690Z,22.20
2023-05-12T13:32:30.542Z,22.20
2023-05-12T13:35:06.328Z,22.20
2023-05-12T13:37:45.571Z,22.20
2023-05-12T13:40:30.754Z,22.20
2023-05-12T13:43:09.894Z,22.20
2023-05-12T13:45:46.468Z,22.20
2023-05-12T13:48:25.298Z,22.20
2023-05-12T13:51:01.026Z,22.20
2023-05-12T13:53:44.092Z,22.20
2023-05-12T13:56:27.747Z,22.10
2023-05-12T13:59:04.136Z,22.10
2023-05-12T14:01:44.372Z,22.10
2023-05-12T14:04:20.148Z,22.20
2023-05-12T14:06:58.870Z,22.20
2023-05-12T14:09:44.770Z,22.30
2023-05-12T14:12:24.728Z,22.30
2023-05-12T14:15:11.155Z,22.40
2023-05-12T14:18:00.596Z,22.50
2023-05-12T14:20:37.489Z,22.50
2023-05-12T14:23:12.934Z,22.50
2023-05-12T14:25:54.147Z,22.50
2023-05-12T14:28:32.706Z,22.50
2023-05-12T14:31:09.597Z,22.50
2023-05-12T14:33:45.420Z,22.50
2023-05-12T14:36:21.604Z,22.50
2023-05-12T14:38:56.938Z,22.40
2023-05-12T14:41:37.632Z,22.30
2023-05-12T14:44:14.750Z,22.40
2023-05-12T14:46:53.223Z,22.40
2023-05-12T14:49:28.723Z,22.30
2023-05-12T14:52:12.422Z,22.20
2023-05-12T14:54:48.360Z,22.20
2023-05-12T14:57:27.940Z,22.20
2023-05-12T15:00:08.454Z,22.20
2023-05-12T15:02:49.713Z,22.10
2023-05-12T15:11:48.498Z,22.20
2023-05-12T15:14:33.211Z,22.20
2023-05-12T15:17:12.006Z,22.10
2023-05-12T15:19:47.614Z,22.00
2023-05-12T15:22:24.532Z,21.90
2023-05-12T15:25:05.949Z,21.80
2023-05-12T15:27:48.596Z,21.70
2023-05-12T15:30:33.218Z,21.70
2023-05-12T15:33:21.112Z,21.60
2023-05-12T15:35:59.884Z,21.60
2023-05-12T15:38:50.486Z,21.60
2023-05-12T15:41:35.787Z,21.60
2023-05-12T15:44:12.526Z,21.60
2023-05-12T15:46:57.324Z,21.60
2023-05-12T15:49:33.188Z,21.70
2023-05-12T15:52:11.843Z,21.70
2023-05-12T15:54:47.750Z,21.80
2023-05-12T16:00:33.499Z,21.90
2023-05-12T16:06:09.896Z,21.90
2023-05-12T16:08:53.598Z,21.90
2023-05-12T16:11:31.842Z,21.90
2023-05-12T16:14:10.811Z,21.90
2023-05-12T16:16:49.095Z,21.80
2023-05-12T16:19:33.935Z,21.70
2023-05-12T16:22:18.489Z,21.50
2023-05-12T16:24:55.391Z,21.40
2023-05-12T16:45:53.775Z,21.00
2023-05-12T16:48:45.088Z,20.90
2023-05-12T16:51:39.460Z,20.90
2023-05-12T16:54:18.422Z,20.70
2023-05-12T16:56:56.973Z,20.70
2023-05-12T16:59:38.965Z,20.70
2023-05-12T17:02:19.063Z,20.60
2023-05-12T17:04:58.072Z,20.60
2023-05-12T17:07:37.954Z,20.50
2023-05-12T17:10:15.250Z,20.50
2023-05-12T17:12:53.424Z,20.40
2023-05-12T17:15:30.104Z,20.30
2023-05-12T17:18:13.054Z,20.30
2023-05-12T17:20:54.820Z,20.20
2023-05-12T17:23:37.211Z,20.10
2023-05-12T17:26:17.219Z,20.10
2023-05-12T17:28:56.182Z,20.10
2023-05-12T17:31:39.119Z,20.00
2023-05-12T17:34:20.695Z,19.90
2023-05-12T17:40:08.328Z,19.80
2023-05-12T17:42:48.167Z,19.70
2023-05-12T17:45:30.725Z,19.70
2023-05-12T17:48:15.846Z,19.60
2023-05-12T17:57:42.323Z,19.40
2023-05-12T18:03:38.490Z,19.20
2023-05-12T18:06:17.446Z,19.10
2023-05-12T18:08:55.746Z,19.00
2023-05-12T18:11:32.666Z,18.90
2023-05-12T18:14:09.625Z,18.90
2023-05-12T18:16:58.802Z,18.90
2023-05-12T18:19:38.712Z,18.80
2023-05-12T18:22:15.418Z,18.70
2023-05-12T18:24:51.569Z,18.60
2023-05-12T18:27:28.623Z,18.60
2023-05-12T18:30:07.764Z,18.50
2023-05-12T18:32:44.701Z,18.40
2023-05-12T18:35:29.220Z,18.30
2023-05-12T18:38:09.121Z,18.20
2023-05-12T18:40:44.407Z,18.10
2023-05-12T18:43:19.199Z,18.10
2023-05-12T18:45:54.679Z,18.10
2023-05-12T18:48:30.659Z,18.00
2023-05-12T18:51:08.482Z,17.90
2023-05-12T18:53:43.237Z,17.80
2023-05-12T18:56:18.718Z,17.80
2023-05-12T18:58:54.382Z,17.70
2023-05-12T19:01:29.726Z,17.70
2023-05-12T19:04:05.439Z,17.70
2023-05-12T19:06:43.071Z,17.60
2023-05-12T19:09:18.489Z,17.50
2023-05-12T19:11:53.827Z,17.30
2023-05-12T19:14:31.404Z,17.30
2023-05-12T19:17:06.768Z,17.30
2023-05-12T19:19:40.619Z,17.20
2023-05-12T19:22:18.693Z,17.20
2023-05-12T19:24:56.454Z,17.10
2023-05-12T19:27:31.084Z,17.10
2023-05-12T19:30:06.253Z,17.00
2023-05-12T19:32:42.863Z,16.90
2023-05-12T19:35:18.514Z,16.90
2023-05-12T19:37:56.487Z,16.80
2023-05-12T19:40:31.357Z,16.80
2023-05-12T19:43:10.795Z,16.80
2023-05-12T19:45:46.498Z,16.70
2023-05-12T19:48:24.223Z,16.70
2023-05-12T19:50:58.932Z,16.60
2023-05-12T19:53:38.792Z,16.50
2023-05-12T19:56:15.090Z,16.50
2023-05-12T19:58:53.208Z,16.40
2023-05-12T20:01:30.503Z,16.40
2023-05-12T20:04:07.187Z,16.30
2023-05-12T20:06:42.736Z,16.30
2023-05-12T20:09:25.257Z,16.20
2023-05-12T20:12:00.115Z,16.10
2023-05-12T20:14:39.086Z,16.10
2023-05-12T20:17:16.895Z,16.00
2023-05-12T20:19:52.465Z,16.00
2023-05-12T20:22:27.658Z,15.90
2023-05-12T20:25:06.740Z,15.90
2023-05-12T20:27:42.637Z,15.80
2023-05-12T20:30:19.201Z,15.80
2023-05-12T20:32:56.111Z,15.70
2023-05-12T20:35:31.352Z,15.60
2023-05-12T20:38:06.557Z,15.50
2023-05-12T20:40:45.328Z,15.50
2023-05-12T20:43:22.045Z,15.50
2023-05-12T20:46:01.352Z,15.40
2023-05-12T20:48:39.333Z,15.40
2023-05-12T20:51:17.713Z,15.30
2023-05-12T20:53:57.154Z,15.20
2023-05-12T20:56:39.488Z,15.10
2023-05-12T20:59:19.232Z,15.10
2023-05-12T21:01:55.828Z,15.10
2023-05-12T21:04:33.446Z,15.00
2023-05-12T21:07:11.305Z,15.00
2023-05-12T21:09:51.568Z,14.80
2023-05-12T21:12:38.828Z,14.90
2023-05-12T21:15:20.197Z,14.90
2023-05-12T21:17:57.375Z,14.80
2023-05-12T21:20:36.349Z,14.80
2023-05-12T21:23:14.697Z,14.70
2023-05-12T21:25:49.875Z,14.70
2023-05-12T21:28:30.734Z,14.60
2023-05-12T21:31:08.470Z,14.60
2023-05-12T21:33:45.079Z,14.50
2023-05-12T21:36:23.826Z,14.50
2023-05-12T21:39:00.488Z,14.50
2023-05-12T21:41:39.804Z,14.40
2023-05-12T21:44:18.343Z,14.40
2023-05-12T21:46:54.844Z,14.40
2023-05-12T21:49:30.579Z,14.40
2023-05-12T21:52:09.184Z,14.30
2023-05-12T21:54:47.495Z,14.30
2023-05-12T21:57:24.201Z,14.20
2023-05-12T22:00:06.271Z,14.20
2023-05-12T22:02:51.060Z,14.20
2023-05-12T22:05:28.558Z,14.20
2023-05-12T22:08:04.820Z,14.10
2023-05-12T22:10:44.016Z,14.10
2023-05-12T22:13:22.171Z,14.00
2023-05-12T22:16:03.062Z,14.00
2023-05-12T22:18:46.870Z,13.90
2023-05-12T22:21:26.312Z,13.80
2023-05-12T22:24:03.469Z,13.80
2023-05-12T22:26:41.090Z,13.70
2023-05-12T22:29:21.501Z,13.70
2023-05-12T22:32:05.342Z,13.60
2023-05-12T22:34:42.646Z,13.50
2023-05-12T22:37:17.328Z,13.50
2023-05-12T22:39:55.209Z,13.40
2023-05-12T22:42:31.116Z,13.40
2023-05-12T22:45:10.023Z,13.40
2023-05-12T22:47:51.355Z,13.30
2023-05-12T22:50:27.135Z,13.30
2023-05-12T22:53:04.208Z,13.20
2023-05-12T22:55:39.737Z,13.20
2023-05-12T22:58:16.399Z,13.20
2023-05-12T23:00:55.490Z,13.10
2023-05-12T23:03:36.478Z,13.10
2023-05-12T23:06:17.680Z,13.10
2023-05-12T23:08:56.527Z,13.00
2023-05-12T23:11:32.146Z,13.00
2023-05-12T23:14:18.215Z,13.00
2023-05-12T23:16:53.665Z,13.00
2023-05-12T23:19:33.319Z,13.00
2023-05-12T23:22:10.467Z,12.90
2023-05-12T23:24:45.801Z,12.80
2023-05-12T23:27:25.464Z,12.90
2023-05-12T23:30:01.536Z,12.80
2023-05-12T23:32:39.479Z,12.80
2023-05-12T23:35:25.321Z,12.70
2023-05-12T23:38:03.827Z,12.70
2023-05-12T23:40:41.022Z,12.60
2023-05-12T23:43:17.563Z,12.70
2023-05-12T23:45:56.942Z,12.60
2023-05-12T23:48:33.037Z,12.60
2023-05-12T23:51:12.420Z,12.50
2023-05-12T23:53:51.962Z,12.50
2023-05-12T23:56:28.780Z,12.50
2023-05-12T23:59:05.974Z,12.40
